createdAt,value
2023-02-05T00:02:00.386Z,12.53
2023-02-05T00:07:04.513Z,12.03
2023-02-05T00:12:06.878Z,11.80
2023-02-05T00:17:08.980Z,11.93
2023-02-05T00:22:12.838Z,12.40
2023-02-05T00:27:15.058Z,13.23
2023-02-05T00:32:16.905Z,12.40
2023-02-05T00:37:20.847Z,11.33
2023-02-05T00:42:22.878Z,13.03
2023-02-05T00:47:24.949Z,12.13
2023-02-05T00:52:28.767Z,11.70
2023-02-05T00:57:31.043Z,13.00
2023-02-05T01:02:33.470Z,12.80
2023-02-05T01:07:37.580Z,12.30
2023-02-05T01:12:40.198Z,13.33
2023-02-05T01:17:43.035Z,12.50
2023-02-05T01:22:46.356Z,12.83
2023-02-05T01:27:48.555Z,12.67
2023-02-05T01:32:50.989Z,13.83
2023-02-05T01:37:54.755Z,13.73
2023-02-05T01:42:56.783Z,11.63
2023-02-05T01:48:00.669Z,10.83
2023-02-05T01:53:07.423Z,11.53
2023-02-05T01:58:10.539Z,12.43
2023-02-05T02:03:15.109Z,11.63
2023-02-05T02:08:18.975Z,12.47
2023-02-05T02:13:23.589Z,11.93
2023-02-05T02:18:27.732Z,12.53
2023-02-05T02:23:41.788Z,11.07
2023-02-05T02:28:52.279Z,12.37
2023-02-05T02:34:01.884Z,11.63
2023-02-05T02:39:10.763Z,12.00
2023-02-05T02:44:18.310Z,10.10
2023-02-05T02:49:25.967Z,11.60
2023-02-05T02:54:29.365Z,12.03
2023-02-05T02:59:37.717Z,11.37
2023-02-05T03:04:42.570Z,14.20
2023-02-05T03:09:50.354Z,12.60
2023-02-05T03:14:54.838Z,14.63
2023-02-05T03:20:02.921Z,13.37
2023-02-05T03:25:05.407Z,12.60
2023-02-05T03:30:11.416Z,12.57
2023-02-05T03:35:25.950Z,12.77
2023-02-05T03:40:34.984Z,11.77
2023-02-05T03:45:50.517Z,10.57
2023-02-05T03:50:57.068Z,8.80
2023-02-05T03:56:06.374Z,9.40
2023-02-05T04:01:11.756Z,9.10
2023-02-05T04:06:14.724Z,6.70
2023-02-05T04:11:16.580Z,5.53
2023-02-05T04:16:20.047Z,6.73
2023-02-05T04:21:22.036Z,7.07
2023-02-05T04:26:23.787Z,6.60
2023-02-05T04:31:27.231Z,7.63
2023-02-05T04:36:29.272Z,7.43
2023-02-05T04:41:31.719Z,7.70
2023-02-05T04:46:35.167Z,7.83
2023-02-05T04:51:37.532Z,7.90
2023-02-05T04:56:40.475Z,7.67
2023-02-05T05:01:44.273Z,8.53
2023-02-05T05:06:46.551Z,8.40
2023-02-05T05:11:49.070Z,7.37
2023-02-05T05:16:52.689Z,7.10
2023-02-05T05:21:54.900Z,7.43
2023-02-05T05:26:57.147Z,8.40
2023-02-05T05:32:00.903Z,8.07
2023-02-05T05:37:03.055Z,7.93
2023-02-05T05:42:22.938Z,8.63
2023-02-05T05:47:26.584Z,9.27
2023-02-05T05:52:30.883Z,8.70
2023-02-05T05:57:34.093Z,9.57
2023-02-05T06:02:44.418Z,9.50
2023-02-05T06:07:46.919Z,10.00
2023-02-05T06:12:48.996Z,9.50
2023-02-05T06:17:52.675Z,11.63
2023-02-05T06:22:55.198Z,12.50
2023-02-05T06:27:57.533Z,14.10
2023-02-05T06:33:00.877Z,12.53
2023-02-05T06:38:02.960Z,12.47
2023-02-05T06:43:05.235Z,13.30
2023-02-05T06:48:09.085Z,13.57
2023-02-05T06:53:11.979Z,14.97
2023-02-05T06:58:14.381Z,14.80
2023-02-05T07:03:17.979Z,15.63
2023-02-05T07:08:20.463Z,15.67
2023-02-05T07:13:26.443Z,15.33
2023-02-05T07:18:30.389Z,13.60
2023-02-05T07:23:32.830Z,15.87
2023-02-05T07:28:35.319Z,16.30
2023-02-05T07:33:39.230Z,15.37
2023-02-05T07:38:41.486Z,14.60
2023-02-05T07:43:43.475Z,13.73
2023-02-05T07:48:47.150Z,12.27
2023-02-05T07:53:49.332Z,13.77
2023-02-05T07:58:51.577Z,12.93
2023-02-05T08:03:55.592Z,11.50
2023-02-05T08:08:58.665Z,10.93
2023-02-05T08:14:02.031Z,9.77
2023-02-05T08:19:05.796Z,10.27
2023-02-05T08:24:08.538Z,9.97
2023-02-05T08:29:12.011Z,11.67
2023-02-05T08:34:18.725Z,11.93
2023-02-05T08:39:24.083Z,10.33
2023-02-05T08:45:02.524Z,9.97
2023-02-05T08:50:34.974Z,10.20
2023-02-05T08:56:11.244Z,12.17
2023-02-05T09:01:21.754Z,12.27
2023-02-05T09:06:54.553Z,12.67
2023-02-05T09:17:00.985Z,12.13
2023-02-05T09:22:05.063Z,12.67
2023-02-05T09:27:08.354Z,11.37
2023-02-05T09:32:11.276Z,10.53
2023-02-05T09:37:15.664Z,12.50
2023-02-05T09:42:33.950Z,11.03
2023-02-05T09:47:43.528Z,10.47
2023-02-05T09:52:51.416Z,9.77
2023-02-05T09:57:56.534Z,10.33
2023-02-05T10:03:09.070Z,10.63
2023-02-05T10:08:25.318Z,11.50
2023-02-05T10:13:38.088Z,10.23
2023-02-05T10:18:52.843Z,6.73
2023-02-05T10:24:07.812Z,5.40
2023-02-05T10:29:27.824Z,5.17
2023-02-05T10:34:41.611Z,6.00
2023-02-05T10:39:45.762Z,5.20
2023-02-05T10:44:50.445Z,5.37
2023-02-05T10:49:59.316Z,4.90
2023-02-05T10:55:03.386Z,4.50
2023-02-05T11:00:14.344Z,4.83
2023-02-05T11:05:23.740Z,4.40
2023-02-05T11:10:29.602Z,4.40
2023-02-05T11:15:34.707Z,4.20
2023-02-05T11:20:39.784Z,3.60
2023-02-05T11:25:51.918Z,2.70
2023-02-05T11:30:55.391Z,2.20
2023-02-05T11:36:01.386Z,2.13
2023-02-05T11:41:07.788Z,2.30
2023-02-05T11:46:16.006Z,3.47
2023-02-05T11:51:38.097Z,4.60
2023-02-05T11:56:42.542Z,4.50
2023-02-05T12:01:46.053Z,4.53
2023-02-05T12:06:53.659Z,5.87
2023-02-05T12:12:16.974Z,4.47
2023-02-05T12:17:42.765Z,5.43
2023-02-05T12:23:03.750Z,4.20
2023-02-05T12:28:22.338Z,4.30
2023-02-05T12:33:51.882Z,4.37
2023-02-05T12:39:06.307Z,4.47
2023-02-05T12:44:25.228Z,3.90
2023-02-05T12:49:45.056Z,3.80
2023-02-05T12:55:03.119Z,4.07
2023-02-05T13:00:15.162Z,4.00
2023-02-05T13:05:22.802Z,3.80
2023-02-05T13:10:29.687Z,3.37
2023-02-05T13:15:41.063Z,3.37
2023-02-05T13:21:03.446Z,3.40
2023-02-05T13:26:34.704Z,4.23
2023-02-05T13:31:43.592Z,3.63
2023-02-05T13:37:12.275Z,3.93
2023-02-05T13:42:30.340Z,3.93
2023-02-05T13:48:05.391Z,3.87
2023-02-05T13:53:28.047Z,4.23
2023-02-05T13:58:32.672Z,4.13
2023-02-05T14:03:40.019Z,4.80
2023-02-05T14:08:43.354Z,5.13
2023-02-05T14:14:22.812Z,5.97
2023-02-05T14:19:53.060Z,4.63
2023-02-05T14:24:57.723Z,4.60
2023-02-05T14:30:42.287Z,4.73
2023-02-05T14:35:49.186Z,5.53
2023-02-05T14:41:05.290Z,5.00
2023-02-05T14:46:23.036Z,5.30
2023-02-05T14:51:31.833Z,4.83
2023-02-05T14:56:42.121Z,5.53
2023-02-05T15:01:51.174Z,6.70
2023-02-05T15:07:01.004Z,7.77
2023-02-05T15:12:30.836Z,8.43
2023-02-05T15:17:51.746Z,8.43
2023-02-05T15:23:18.373Z,8.70
2023-02-05T15:28:28.535Z,8.57
2023-02-05T15:33:41.345Z,9.00
2023-02-05T15:38:51.266Z,8.53
2023-02-05T15:44:02.329Z,7.87
2023-02-05T15:49:08.313Z,7.47
2023-02-05T15:54:22.334Z,7.93
2023-02-05T15:59:31.471Z,7.40
2023-02-05T16:04:38.150Z,8.37
2023-02-05T16:09:52.903Z,8.20
2023-02-05T16:15:03.796Z,8.43
2023-02-05T16:20:22.375Z,8.97
2023-02-05T16:25:49.484Z,9.43
2023-02-05T16:30:56.755Z,10.57
2023-02-05T16:36:02.099Z,9.90
2023-02-05T16:41:22.744Z,9.30
2023-02-05T16:46:29.310Z,9.17
2023-02-05T16:51:55.542Z,9.80
2023-02-05T16:57:04.767Z,9.73
2023-02-05T17:02:16.511Z,10.10
2023-02-05T17:07:22.721Z,8.73
2023-02-05T17:12:57.437Z,9.97
2023-02-05T17:18:06.667Z,8.93
2023-02-05T17:23:13.318Z,9.87
2023-02-05T17:28:21.047Z,9.20
2023-02-05T17:33:30.016Z,8.70
2023-02-05T17:38:32.992Z,10.57
2023-02-05T17:43:39.702Z,12.53
2023-02-05T17:48:43.061Z,13.40
2023-02-05T17:53:46.824Z,15.17
2023-02-05T17:58:52.351Z,14.07
2023-02-05T18:03:58.677Z,14.80
2023-02-05T18:09:03.638Z,14.67
2023-02-05T18:14:09.221Z,13.90
2023-02-05T18:19:12.583Z,12.90
2023-02-05T18:24:16.551Z,13.40
2023-02-05T18:29:22.238Z,13.13
2023-02-05T18:34:27.261Z,13.13
2023-02-05T18:39:30.924Z,12.50
2023-02-05T18:44:36.632Z,13.53
2023-02-05T18:49:42.533Z,13.17
2023-02-05T18:54:48.141Z,15.37
2023-02-05T18:59:54.612Z,15.90
2023-02-05T19:04:57.659Z,14.87
2023-02-05T19:10:00.149Z,15.03
2023-02-05T19:15:08.074Z,14.13
2023-02-05T19:20:13.471Z,16.47
2023-02-05T19:25:16.998Z,17.60
2023-02-05T19:30:23.173Z,18.50
2023-02-05T19:35:26.587Z,18.27
2023-02-05T19:40:30.432Z,17.83
2023-02-05T19:45:40.052Z,17.87
2023-02-05T19:50:45.233Z,18.40
2023-02-05T19:55:50.422Z,18.23
2023-02-05T20:00:55.970Z,17.80
2023-02-05T20:06:01.799Z,18.00
2023-02-05T20:11:07.909Z,17.93
2023-02-05T20:16:17.730Z,18.07
2023-02-05T20:21:21.993Z,18.20
2023-02-05T20:26:26.055Z,18.63
2023-02-05T20:31:42.300Z,22.00
2023-02-05T20:36:46.241Z,25.00
2023-02-05T20:41:50.974Z,22.33
2023-02-05T20:46:57.194Z,24.43
2023-02-05T20:52:00.674Z,19.97
2023-02-05T20:57:04.824Z,21.23
2023-02-05T21:02:10.695Z,21.73
2023-02-05T21:07:15.368Z,20.83
2023-02-05T21:12:20.164Z,20.90
2023-02-05T21:17:25.331Z,21.63
2023-02-05T21:22:29.376Z,20.73
2023-02-05T21:27:32.195Z,21.40
2023-02-05T21:32:38.335Z,17.67
2023-02-05T21:37:40.878Z,17.80
2023-02-05T21:42:43.243Z,18.80
2023-02-05T21:47:47.267Z,17.53
2023-02-05T21:52:49.850Z,17.17
2023-02-05T21:57:52.200Z,18.03
2023-02-05T22:02:56.079Z,18.37
2023-02-05T22:07:58.351Z,17.10
2023-02-05T22:13:00.934Z,16.20
2023-02-05T22:18:05.417Z,13.93
2023-02-05T22:23:07.438Z,11.67
2023-02-05T22:28:11.766Z,11.30
2023-02-05T22:33:17.706Z,11.27
2023-02-05T22:38:19.793Z,13.93
2023-02-05T22:43:24.528Z,14.17
2023-02-05T22:48:28.061Z,14.90
2023-02-05T22:53:30.218Z,14.87
2023-02-05T22:58:35.385Z,13.10
2023-02-05T23:03:39.820Z,12.33
2023-02-05T23:08:43.126Z,12.53
2023-02-05T23:13:45.417Z,12.13
2023-02-05T23:18:50.974Z,12.07
2023-02-05T23:23:54.475Z,11.13
2023-02-05T23:28:57.472Z,10.50
2023-02-05T23:34:03.326Z,10.87
2023-02-05T23:39:08.918Z,10.60
2023-02-05T23:44:15.791Z,11.10
2023-02-05T23:49:21.988Z,12.20
2023-02-05T23:54:27.440Z,10.73
2023-02-05T23:59:29.793Z,11.60
